Time;durP1;ratioP1;P1;durP2;ratioP2;P2;SDS_P1;SDS_P2;PMS_P1;PMS_P2;Temp;Humidity;BMP_temperature;BMP_pressure;BME280_temperature;BME280_humidity;BME280_pressure;Samples;Min_cycle;Max_cycle;Signal;HPM_P1;HPM_P2
2022/06/30 00:00:20;;;;;;;0.10;0.10;;;;;;;22.05;56.69;101171.44;5033592;28;20104;-81
2022/06/30 00:02:46;;;;;;;0.52;0.52;;;;;;;22.02;56.44;101174.31;5030311;28;20072;-81
2022/06/30 00:05:12;;;;;;;0.00;0.00;;;;;;;21.98;57.61;101174.53;5034014;28;20069;-81
2022/06/30 00:07:38;;;;;;;0.00;0.00;;;;;;;21.95;57.17;101171.16;5035651;28;20032;-81
2022/06/30 00:10:05;;;;;;;0.45;0.35;;;;;;;21.94;57.38;101173.00;5035404;28;20496;-81
2022/06/30 00:12:31;;;;;;;0.05;0.05;;;;;;;21.93;57.99;101171.25;5036988;28;20025;-81
2022/06/30 00:14:57;;;;;;;0.20;0.20;;;;;;;21.89;57.58;101164.31;5041669;28;20031;-80
2022/06/30 00:17:23;;;;;;;0.00;0.00;;;;;;;21.89;57.35;101156.22;5036493;28;20501;-80
2022/06/30 00:19:49;;;;;;;0.00;0.00;;;;;;;21.86;57.92;101159.13;5034511;28;20516;-81
2022/06/30 00:22:15;;;;;;;0.00;0.00;;;;;;;21.85;58.35;101157.38;5033672;28;20104;-81
2022/06/30 00:24:41;;;;;;;0.10;0.10;;;;;;;21.82;57.28;101152.19;5040190;28;20113;-81
2022/06/30 00:27:08;;;;;;;0.00;0.00;;;;;;;21.80;58.55;101154.09;5053651;28;20108;-80
2022/06/30 00:29:34;;;;;;;1.55;1.30;;;;;;;21.78;58.47;101151.50;5033443;28;20510;-81
2022/06/30 00:32:00;;;;;;;0.20;0.20;;;;;;;21.75;58.12;101150.84;5033857;28;20030;-80
2022/06/30 00:34:26;;;;;;;0.10;0.10;;;;;;;21.69;58.22;101148.53;5037800;28;20110;-81
2022/06/30 00:36:53;;;;;;;0.10;0.10;;;;;;;21.64;58.22;101144.25;5044802;28;20056;-81
2022/06/30 00:39:20;;;;;;;0.10;0.10;;;;;;;21.63;58.27;101137.16;5034117;28;20096;-81
2022/06/30 00:41:46;;;;;;;0.00;0.00;;;;;;;21.61;58.71;101139.06;5033610;28;20051;-80
2022/06/30 00:44:13;;;;;;;0.30;0.30;;;;;;;21.58;58.38;101139.28;5037644;28;20413;-81
2022/06/30 00:46:40;;;;;;;0.25;0.10;;;;;;;21.54;58.75;101134.97;5036828;28;20024;-81
2022/06/30 00:49:07;;;;;;;0.10;0.10;;;;;;;21.53;58.42;101138.63;5035915;28;20071;-81
2022/06/30 00:51:34;;;;;;;0.20;0.20;;;;;;;21.49;58.86;101139.78;5033445;28;20037;-80
2022/06/30 00:54:03;;;;;;;0.08;0.08;;;;;;;21.44;59.20;101140.06;5040449;28;20459;-81
2022/06/30 00:56:32;;;;;;;1.38;0.47;;;;;;;21.42;59.13;101138.44;5038594;28;20040;-80
2022/06/30 00:59:02;;;;;;;0.00;0.00;;;;;;;21.42;59.10;101138.44;5033654;28;20055;-80
2022/06/30 01:01:29;;;;;;;0.20;0.20;;;;;;;21.39;59.10;101130.53;5038886;28;20026;-81
2022/06/30 01:03:57;;;;;;;0.45;0.45;;;;;;;21.38;58.87;101136.88;5043915;28;20120;-80
2022/06/30 01:06:24;;;;;;;0.10;0.10;;;;;;;21.34;59.17;101137.06;5044781;28;20033;-80
2022/06/30 01:08:51;;;;;;;0.38;0.38;;;;;;;21.32;59.03;101122.84;5039476;28;20026;-80
2022/06/30 01:14:06;;;;;;;0.25;0.25;;;;;;;21.28;59.49;101126.69;5044197;28;20536;-81
2022/06/30 01:16:32;;;;;;;0.00;0.00;;;;;;;21.27;59.33;101130.34;5039813;28;20501;-81
2022/06/30 01:18:58;;;;;;;0.00;0.00;;;;;;;21.26;59.66;101127.72;5039777;28;20036;-81
2022/06/30 01:21:27;;;;;;;4.65;0.52;;;;;;;21.26;59.21;101139.38;5044835;28;20527;-80
2022/06/30 01:23:54;;;;;;;0.00;0.00;;;;;;;21.22;59.12;101131.56;5043409;28;20041;-81
2022/06/30 01:26:23;;;;;;;0.00;0.00;;;;;;;21.22;59.68;101135.13;5039519;28;20132;-81
2022/06/30 01:28:51;;;;;;;2.15;0.40;;;;;;;21.20;60.15;101128.06;5036358;28;20025;-81
2022/06/30 01:31:17;;;;;;;0.10;0.10;;;;;;;21.19;59.69;101132.59;5039129;28;20033;-81
2022/06/30 01:33:44;;;;;;;0.10;0.10;;;;;;;21.16;59.60;101132.81;5038923;28;20037;-81
2022/06/30 01:36:10;;;;;;;0.63;0.63;;;;;;;21.14;59.88;101134.72;5040989;28;20064;-81
2022/06/30 01:38:36;;;;;;;0.30;0.30;;;;;;;21.12;59.69;101139.31;5055755;28;20045;-81
2022/06/30 01:41:02;;;;;;;0.00;0.00;;;;;;;21.09;60.07;101137.69;5039765;28;20060;-81
2022/06/30 01:43:28;;;;;;;0.00;0.00;;;;;;;21.07;59.45;101134.22;5036287;28;20117;-81
2022/06/30 01:45:55;;;;;;;0.00;0.00;;;;;;;21.04;59.62;101128.16;5039760;28;20108;-80
2022/06/30 01:48:21;;;;;;;0.03;0.03;;;;;;;21.00;60.28;101131.00;5042284;28;20116;-81
2022/06/30 01:50:47;;;;;;;0.10;0.10;;;;;;;20.98;60.18;101143.69;5044210;28;20083;-81
2022/06/30 01:53:13;;;;;;;0.10;0.10;;;;;;;20.69;60.63;101177.69;5035901;28;20037;-81
2022/06/30 01:55:40;;;;;;;5.68;1.02;;;;;;;20.76;61.82;101152.19;5034397;28;20056;-81
2022/06/30 01:58:06;;;;;;;0.45;0.45;;;;;;;20.87;60.57;101181.16;5037255;28;20041;-81
2022/06/30 02:00:32;;;;;;;0.40;0.40;;;;;;;20.80;61.03;101190.59;5039759;28;20033;-81
2022/06/30 02:02:59;;;;;;;0.00;0.00;;;;;;;20.93;60.39;101180.81;5039037;28;20025;-81
2022/06/30 02:05:26;;;;;;;0.20;0.20;;;;;;;21.00;59.73;101192.97;5035778;28;20508;-80
2022/06/30 02:07:53;;;;;;;4.75;0.85;;;;;;;21.05;60.22;101178.34;5032668;28;20030;-81
2022/06/30 02:10:21;;;;;;;0.30;0.30;;;;;;;21.07;59.88;101184.53;5037458;28;20040;-81
2022/06/30 02:12:48;;;;;;;0.10;0.10;;;;;;;21.12;59.68;101177.03;5037966;28;20136;-80
2022/06/30 02:15:18;;;;;;;0.10;0.10;;;;;;;21.13;59.69;101194.94;5034284;28;20096;-81
2022/06/30 02:17:46;;;;;;;0.17;0.17;;;;;;;21.11;59.85;101178.88;5032287;28;20040;-81
2022/06/30 02:20:13;;;;;;;0.20;0.20;;;;;;;21.10;59.20;101182.53;5035923;28;20049;-80
2022/06/30 02:22:41;;;;;;;1.38;1.27;;;;;;;21.06;60.15;101196.25;5048373;28;20029;-81
2022/06/30 02:25:08;;;;;;;1.33;0.43;;;;;;;21.05;60.44;101165.78;5038592;28;20106;-81
2022/06/30 02:27:35;;;;;;;0.00;0.00;;;;;;;21.08;59.91;101178.19;5036705;28;20063;-80
2022/06/30 02:30:01;;;;;;;0.68;0.68;;;;;;;21.06;59.85;101180.09;5035416;28;20091;-81
2022/06/30 02:32:27;;;;;;;0.57;0.57;;;;;;;21.03;60.30;101172.22;5036792;28;20033;-81
2022/06/30 02:34:55;;;;;;;0.10;0.10;;;;;;;21.04;60.15;101180.19;5037812;28;20489;-81
2022/06/30 02:37:22;;;;;;;0.68;0.68;;;;;;;21.01;60.80;101167.78;5036130;28;20033;-81
2022/06/30 02:39:48;;;;;;;0.30;0.30;;;;;;;20.99;60.29;101172.38;5034832;28;20041;-80
2022/06/30 02:42:14;;;;;;;0.20;0.20;;;;;;;20.97;60.43;101174.31;5037045;28;20042;-80
2022/06/30 02:44:40;;;;;;;0.10;0.10;;;;;;;20.96;60.74;101172.56;5039156;28;20025;-81
2022/06/30 02:47:06;;;;;;;0.47;0.47;;;;;;;20.94;60.66;101166.41;5035351;28;20390;-80
2022/06/30 02:49:32;;;;;;;0.13;0.13;;;;;;;20.94;60.46;101166.41;5032544;28;20037;-81
2022/06/30 02:51:59;;;;;;;0.32;0.30;;;;;;;20.88;61.43;101161.38;5036116;28;20029;-80
2022/06/30 02:54:25;;;;;;;0.05;0.05;;;;;;;20.85;61.20;101157.03;5038372;28;20038;-81
2022/06/30 02:56:51;;;;;;;0.10;0.10;;;;;;;20.83;60.79;101158.06;5035365;28;20108;-80
2022/06/30 02:59:17;;;;;;;0.30;0.30;;;;;;;20.79;61.05;101156.53;5035626;28;20037;-81
2022/06/30 03:01:43;;;;;;;0.43;0.43;;;;;;;20.75;60.67;101147.75;5034204;28;20036;-81
2022/06/30 03:04:09;;;;;;;0.57;0.57;;;;;;;20.73;60.86;101151.50;5034152;28;20037;-80
2022/06/30 03:06:36;;;;;;;0.22;0.22;;;;;;;20.71;60.92;101158.75;5036481;28;20029;-80
2022/06/30 03:09:03;;;;;;;0.68;0.63;;;;;;;20.67;60.72;101158.06;5032258;28;20120;-79
2022/06/30 03:11:30;;;;;;;0.20;0.20;;;;;;;20.61;60.90;101159.31;5034628;28;20041;-81
2022/06/30 03:13:56;;;;;;;0.32;0.32;;;;;;;20.60;60.83;101146.78;5034748;28;20028;-81
2022/06/30 03:16:22;;;;;;;0.10;0.10;;;;;;;20.59;60.81;101153.13;5037601;28;20029;-81
2022/06/30 03:18:48;;;;;;;0.10;0.10;;;;;;;20.56;60.44;101156.00;5032391;28;20033;-80
2022/06/30 03:21:15;;;;;;;0.47;0.47;;;;;;;20.53;61.24;101159.72;5032374;28;20440;-81
2022/06/30 03:23:41;;;;;;;0.05;0.05;;;;;;;20.52;60.97;101151.72;5032890;28;20183;-80
2022/06/30 03:26:07;;;;;;;0.00;0.00;;;;;;;20.52;61.11;101139.16;5033124;28;20045;-81
2022/06/30 03:28:33;;;;;;;0.47;0.47;;;;;;;20.53;61.39;101140.88;5031534;28;20052;-80
2022/06/30 03:31:00;;;;;;;0.00;0.00;;;;;;;20.53;61.36;101140.88;5032510;28;20040;-79
2022/06/30 03:33:26;;;;;;;0.10;0.10;;;;;;;20.53;61.49;101145.41;5044065;28;20032;-81
2022/06/30 03:35:53;;;;;;;0.20;0.20;;;;;;;20.53;61.50;101140.88;5038774;28;20112;-81
2022/06/30 03:38:19;;;;;;;0.20;0.20;;;;;;;20.55;61.48;101138.13;5034644;28;20382;-82
2022/06/30 03:40:45;;;;;;;0.10;0.10;;;;;;;20.56;61.45;101138.97;5031830;28;20033;-82
2022/06/30 03:43:11;;;;;;;0.10;0.10;;;;;;;20.56;60.88;101144.34;5033075;28;20043;-81
2022/06/30 03:45:37;;;;;;;0.00;0.00;;;;;;;20.53;60.47;101146.25;5034181;28;20030;-80
2022/06/30 03:48:05;;;;;;;0.52;0.52;;;;;;;20.55;61.37;101138.13;5032817;28;20082;-80
2022/06/30 03:50:33;;;;;;;0.08;0.08;;;;;;;20.56;61.24;101141.66;5034224;28;20129;-81
2022/06/30 03:53:00;;;;;;;0.10;0.10;;;;;;;20.55;61.34;101138.13;5039383;28;20021;-81
2022/06/30 03:55:26;;;;;;;0.10;0.10;;;;;;;20.54;61.16;101144.44;5033655;28;20041;-80
2022/06/30 03:57:52;;;;;;;0.30;0.30;;;;;;;20.56;61.24;101141.66;5032353;28;20025;-81
2022/06/30 04:00:19;;;;;;;1.60;1.55;;;;;;;20.55;61.39;101139.91;5033540;28;20048;-81
2022/06/30 04:02:45;;;;;;;0.10;0.10;;;;;;;20.54;61.10;101144.44;5033634;28;20043;-82
2022/06/30 04:05:11;;;;;;;0.10;0.10;;;;;;;20.56;61.23;101144.34;5036735;28;20025;-82
2022/06/30 04:07:45;;;;;;;0.10;0.10;;;;;;;20.62;61.48;101152.06;5032945;28;20049;-82
2022/06/30 04:10:14;;;;;;;0.63;0.63;;;;;;;20.59;61.75;101145.03;5032927;28;20033;-81
2022/06/30 04:12:41;;;;;;;0.15;0.15;;;;;;;20.59;61.66;101139.66;5033326;28;20377;-82
2022/06/30 04:15:07;;;;;;;0.10;0.10;;;;;;;20.63;61.17;101145.75;5032398;28;20492;-81
2022/06/30 04:17:34;;;;;;;0.10;0.10;;;;;;;20.64;60.82;101140.25;5033737;28;20029;-81
2022/06/30 04:20:02;;;;;;;0.22;0.22;;;;;;;20.63;61.48;101135.81;5034394;28;20489;-82
2022/06/30 04:22:28;;;;;;;0.00;0.00;;;;;;;20.66;61.22;101141.06;5035354;28;20472;-81
2022/06/30 04:24:54;;;;;;;0.10;0.10;;;;;;;20.66;60.95;101143.75;5032911;28;20089;-81
2022/06/30 04:27:21;;;;;;;0.00;0.00;;;;;;;20.66;61.16;101135.66;5034424;28;20072;-82
2022/06/30 04:29:47;;;;;;;0.10;0.10;;;;;;;20.69;60.75;101143.56;5032371;28;20474;-80
2022/06/30 04:32:44;;;;;;;0.10;0.10;;;;;;;20.69;61.66;101157.00;5034774;28;20032;-80
2022/06/30 04:34:59;;;;;;;0.10;0.10;;;;;;;20.63;62.28;101189.66;5042366;28;20029;-81
2022/06/30 04:37:25;;;;;;;1.30;1.20;;;;;;;20.69;62.13;101199.22;5035659;28;20094;-81
2022/06/30 04:41:23;;;;;;;0.30;0.30;;;;;;;20.77;61.41;101174.59;5041338;28;20039;-81
2022/06/30 04:42:37;;;;;;;0.10;0.10;;;;;;;20.81;61.09;101179.72;5050995;28;20036;-81
2022/06/30 04:45:04;;;;;;;0.47;0.47;;;;;;;20.73;61.85;101199.97;5053866;28;20037;-81
2022/06/30 04:47:30;;;;;;;0.50;0.50;;;;;;;20.77;61.45;101191.63;5046059;28;20038;-82
2022/06/30 04:49:56;;;;;;;2.63;1.55;;;;;;;20.67;61.42;101180.47;5039661;28;20039;-82
2022/06/30 04:52:22;;;;;;;1.15;1.05;;;;;;;20.78;60.97;101200.56;5041624;28;20072;-82
2022/06/30 04:54:48;;;;;;;0.20;0.20;;;;;;;20.74;61.04;101207.09;5045333;28;20025;-80
2022/06/30 04:57:14;;;;;;;1.40;0.47;;;;;;;20.67;60.62;101228.06;5043768;28;20405;-82
2022/06/30 04:59:40;;;;;;;0.10;0.10;;;;;;;20.62;60.48;101209.50;5041067;28;20030;-82
2022/06/30 05:02:06;;;;;;;0.00;0.00;;;;;;;20.68;60.18;101198.34;5035089;28;20061;-82
2022/06/30 05:04:32;;;;;;;0.10;0.10;;;;;;;20.63;59.96;101200.44;5041302;28;20048;-82
2022/06/30 05:06:58;;;;;;;0.00;0.00;;;;;;;20.60;59.96;101208.72;5044125;28;20041;-82
2022/06/30 05:09:24;;;;;;;0.10;0.10;;;;;;;20.75;59.82;101206.09;5044732;28;20064;-82
2022/06/30 05:11:50;;;;;;;0.10;0.10;;;;;;;20.76;59.88;101205.16;5035655;28;20037;-82
2022/06/30 05:14:17;;;;;;;0.52;0.52;;;;;;;20.78;59.73;101211.34;5042488;28;20497;-82
2022/06/30 05:16:43;;;;;;;0.10;0.10;;;;;;;20.78;60.02;101217.56;5037960;28;20076;-82
2022/06/30 05:19:09;;;;;;;0.10;0.10;;;;;;;20.69;60.27;101227.00;5037726;28;20063;-82
2022/06/30 05:21:36;;;;;;;0.00;0.00;;;;;;;20.65;60.93;101236.22;5038537;28;20052;-82
2022/06/30 05:26:48;;;;;;;0.10;0.10;;;;;;;20.70;61.36;101227.91;5033232;28;20030;-80
2022/06/30 05:29:17;;;;;;;0.10;0.10;;;;;;;20.62;62.15;101231.03;5031975;28;20041;-81
2022/06/30 05:31:43;;;;;;;0.10;0.10;;;;;;;20.69;61.78;101220.78;5023601;28;20164;-79
2022/06/30 05:34:09;;;;;;;0.10;0.10;;;;;;;20.74;62.16;101223.25;5039737;28;20047;-81
2022/06/30 05:36:35;;;;;;;0.00;0.00;;;;;;;20.69;62.48;101242.31;5038790;28;20107;-81
2022/06/30 05:39:01;;;;;;;0.17;0.17;;;;;;;20.76;61.91;101229.41;5036174;28;20545;-80
2022/06/30 05:41:27;;;;;;;0.15;0.15;;;;;;;20.79;61.67;101227.41;5031849;28;20068;-80
2022/06/30 05:43:53;;;;;;;0.10;0.10;;;;;;;20.87;61.88;101218.88;5012862;23;20389;-81
2022/06/30 05:46:19;;;;;;;0.10;0.10;;;;;;;20.79;62.23;101226.53;5010448;28;20116;-79
2022/06/30 05:48:45;;;;;;;0.38;0.38;;;;;;;20.84;61.97;101229.84;5008892;28;20100;-80
2022/06/30 05:51:11;;;;;;;0.00;0.00;;;;;;;20.89;61.83;101216.13;5011406;28;20473;-80
2022/06/30 05:53:38;;;;;;;0.80;0.80;;;;;;;20.91;61.59;101214.19;5009250;28;20042;-79
2022/06/30 05:56:04;;;;;;;0.10;0.10;;;;;;;21.07;61.18;101206.09;5013115;28;20510;-79
2022/06/30 05:58:30;;;;;;;0.00;0.00;;;;;;;21.08;61.41;101210.53;5011435;28;20045;-80
2022/06/30 06:00:57;;;;;;;0.08;0.08;;;;;;;21.01;60.93;101218.09;5010544;28;20041;-84
2022/06/30 06:03:23;;;;;;;0.00;0.00;;;;;;;21.01;61.12;101212.72;5013514;28;20041;-78
2022/06/30 06:05:49;;;;;;;0.10;0.10;;;;;;;21.04;60.87;101211.66;5011462;28;20053;-79
2022/06/30 06:08:15;;;;;;;0.00;0.00;;;;;;;21.08;60.85;101205.13;5008788;28;20482;-78
2022/06/30 06:10:41;;;;;;;4.05;0.60;;;;;;;21.12;60.38;101201.28;5014539;28;20065;-78
2022/06/30 06:13:09;;;;;;;0.10;0.10;;;;;;;21.17;60.16;101205.47;5015139;28;20085;-78
2022/06/30 06:15:35;;;;;;;0.10;0.10;;;;;;;21.19;59.96;101213.44;5015462;28;20029;-79
2022/06/30 06:18:01;;;;;;;0.00;0.00;;;;;;;21.15;59.74;101212.75;5013049;28;20521;-79
2022/06/30 06:20:28;;;;;;;0.00;0.00;;;;;;;21.20;59.92;101209.78;5013870;28;20034;-79
2022/06/30 06:22:54;;;;;;;0.40;0.30;;;;;;;21.15;59.60;101211.91;5013172;28;20041;-78
2022/06/30 06:25:20;;;;;;;0.08;0.08;;;;;;;21.12;59.38;101214.75;5015589;28;20509;-79
2022/06/30 06:29:05;;;;;;;0.00;0.00;;;;;;;21.08;58.40;101221.28;5020483;28;20402;-79
2022/06/30 06:30:34;;;;;;;0.00;0.00;;;;;;;21.22;58.39;101224.06;5018888;28;20050;-80
2022/06/30 06:33:00;;;;;;;5.28;1.35;;;;;;;21.16;57.40;101221.72;5017966;28;20537;-80
2022/06/30 06:35:27;;;;;;;0.17;0.17;;;;;;;21.34;57.66;101227.84;5018870;28;20042;-79
2022/06/30 06:37:53;;;;;;;0.00;0.00;;;;;;;21.24;57.47;101238.28;5019538;28;20038;-85
2022/06/30 06:40:19;;;;;;;0.77;0.77;;;;;;;21.34;56.74;101233.22;5021087;28;20482;-85
2022/06/30 06:42:45;;;;;;;0.10;0.10;;;;;;;21.39;56.80;101238.34;5019250;28;20045;-83
2022/06/30 06:45:11;;;;;;;0.03;0.03;;;;;;;21.54;56.53;101240.13;5021443;28;20034;-83
2022/06/30 06:47:37;;;;;;;0.10;0.10;;;;;;;21.52;56.51;101246.56;5019691;28;20034;-82
2022/06/30 06:50:06;;;;;;;0.20;0.20;;;;;;;21.60;56.34;101255.13;5020176;28;20033;-83
2022/06/30 06:52:33;;;;;;;0.10;0.10;;;;;;;21.51;56.09;101267.28;5020312;28;20036;-81
2022/06/30 06:54:59;;;;;;;0.10;0.10;;;;;;;;;;5020421;28;20026;-81
2022/06/30 06:57:31;;;;;;;0.32;0.32;;;;;;;21.62;55.77;101263.94;5020207;28;20033;-81
2022/06/30 06:59:57;;;;;;;0.10;0.10;;;;;;;21.72;55.83;101272.38;5018467;28;20049;-82
2022/06/30 07:02:23;;;;;;;0.10;0.10;;;;;;;21.85;55.52;101265.28;5019902;28;20061;-82
2022/06/30 07:04:49;;;;;;;0.10;0.10;;;;;;;21.87;54.94;101266.06;5019246;28;20050;-82
2022/06/30 07:07:15;;;;;;;0.00;0.00;;;;;;;21.91;55.16;101264.91;5018758;28;20033;-81
2022/06/30 07:09:41;;;;;;;1.13;0.43;;;;;;;21.93;55.00;101265.69;5018779;28;20432;-80
2022/06/30 07:12:08;;;;;;;0.00;0.00;;;;;;;22.04;54.83;101264.16;5018062;28;20036;-79
2022/06/30 07:14:34;;;;;;;0.08;0.08;;;;;;;22.04;54.62;101269.53;5016345;28;20084;-81
2022/06/30 07:17:00;;;;;;;0.00;0.00;;;;;;;22.24;54.46;101263.78;5014764;28;20212;-81
2022/06/30 07:19:26;;;;;;;0.10;0.10;;;;;;;22.29;53.93;101272.47;5014953;28;20044;-81
2022/06/30 07:21:52;;;;;;;0.10;0.10;;;;;;;22.33;53.65;101280.34;5029537;28;20032;-81
2022/06/30 07:24:18;;;;;;;0.10;0.10;;;;;;;22.40;53.37;101274.50;5014957;28;20408;-81
2022/06/30 07:26:44;;;;;;;0.08;0.08;;;;;;;22.51;53.29;101287.31;5014806;28;20486;-80
2022/06/30 07:29:14;;;;;;;0.10;0.10;;;;;;;22.62;53.16;101287.50;5011930;28;20026;-81
2022/06/30 07:31:40;;;;;;;0.05;0.05;;;;;;;22.71;51.46;101296.00;5013246;28;20030;-81
2022/06/30 07:34:06;;;;;;;1.27;1.17;;;;;;;22.84;52.03;101280.72;5013503;28;20026;-81
2022/06/30 07:36:32;;;;;;;0.00;0.00;;;;;;;22.97;52.15;101280.78;5013567;28;20029;-81
2022/06/30 07:38:58;;;;;;;0.10;0.10;;;;;;;23.08;50.98;101280.09;5014121;28;20044;-81
2022/06/30 07:41:25;;;;;;;0.10;0.10;;;;;;;23.19;51.55;101280.28;5013441;28;20108;-81
2022/06/30 07:43:52;;;;;;;0.10;0.10;;;;;;;23.27;50.81;101275.22;5013124;28;20037;-80
2022/06/30 07:46:19;;;;;;;0.10;0.10;;;;;;;23.21;50.14;101278.31;5013091;28;20120;-81
2022/06/30 07:48:45;;;;;;;0.15;0.15;;;;;;;23.33;50.15;101270.34;5013492;28;20491;-81
2022/06/30 07:51:12;;;;;;;0.08;0.08;;;;;;;23.36;49.72;101280.97;5013409;28;20052;-81
2022/06/30 07:53:39;;;;;;;0.20;0.20;;;;;;;23.43;49.55;101282.31;5013883;28;20030;-81
2022/06/30 07:56:05;;;;;;;0.05;0.05;;;;;;;23.41;48.92;101281.53;5014940;28;20082;-82
2022/06/30 07:58:33;;;;;;;0.00;0.00;;;;;;;23.46;48.14;101282.09;5014211;28;20108;-80
2022/06/30 08:00:59;;;;;;;0.03;0.03;;;;;;;23.62;49.35;101286.47;5012885;28;20277;-80
2022/06/30 08:03:25;;;;;;;0.55;0.55;;;;;;;23.58;49.08;101281.25;5013620;28;20117;-78
2022/06/30 08:05:52;;;;;;;0.25;0.25;;;;;;;23.72;48.94;101284.84;5012927;28;20165;-79
2022/06/30 08:08:18;;;;;;;0.03;0.03;;;;;;;23.70;48.12;101284.97;5013446;28;20038;-79
2022/06/30 08:10:44;;;;;;;0.10;0.10;;;;;;;23.61;47.14;101290.13;5012711;28;20030;-80
2022/06/30 08:13:10;;;;;;;0.30;0.30;;;;;;;23.69;46.79;101293.16;5017405;28;20044;-81
2022/06/30 08:15:37;;;;;;;0.08;0.08;;;;;;;23.79;47.28;101286.16;5017414;28;20518;-79
2022/06/30 08:18:04;;;;;;;0.03;0.03;;;;;;;23.77;46.50;101282.69;5008302;28;20037;-79
2022/06/30 08:20:31;;;;;;;0.20;0.20;;;;;;;23.96;46.99;101284.16;5015565;28;20211;-78
2022/06/30 08:22:58;;;;;;;0.25;0.25;;;;;;;24.07;46.64;101286.97;5015301;28;20117;-79
2022/06/30 08:25:25;;;;;;;0.10;0.10;;;;;;;24.05;46.36;101288.91;5016721;28;20092;-79
2022/06/30 08:27:52;;;;;;;0.10;0.10;;;;;;;24.13;45.54;101291.09;5016299;28;20026;-79
2022/06/30 08:30:19;;;;;;;0.10;0.10;;;;;;;24.17;45.37;101293.47;5016239;28;20029;-79
2022/06/30 08:32:46;;;;;;;0.00;0.00;;;;;;;24.18;45.82;101310.59;5016774;28;20568;-79
2022/06/30 08:35:13;;;;;;;0.00;0.00;;;;;;;24.28;44.77;101289.16;5017789;28;20040;-79
2022/06/30 08:37:40;;;;;;;0.10;0.10;;;;;;;24.55;45.21;101292.59;5017123;28;20033;-79
2022/06/30 08:42:53;;;;;;;0.10;0.10;;;;;;;24.62;44.07;101284.88;5015768;28;20057;-79
2022/06/30 08:45:20;;;;;;;0.10;0.10;;;;;;;24.74;44.02;101283.16;5016949;28;20104;-78
2022/06/30 08:47:48;;;;;;;0.25;0.25;;;;;;;24.72;43.76;101282.38;5016893;28;20025;-79
2022/06/30 08:50:16;;;;;;;0.08;0.08;;;;;;;24.68;43.54;101281.75;5018714;28;20034;-82
2022/06/30 08:55:32;;;;;;;0.10;0.10;;;;;;;24.91;43.51;101275.63;5077147;28;20386;-79
2022/06/30 08:58:07;;;;;;;0.10;0.10;;;;;;;24.89;43.47;101264.03;5073527;28;20052;-80
2022/06/30 09:00:35;;;;;;;0.10;0.10;;;;;;;25.01;43.86;101274.84;5072250;28;20445;-80
2022/06/30 09:03:02;;;;;;;0.10;0.10;;;;;;;25.18;43.75;101272.69;5073387;28;20044;-80
2022/06/30 09:05:29;;;;;;;0.13;0.13;;;;;;;25.33;44.10;101276.97;5074424;28;20070;-80
2022/06/30 09:07:55;;;;;;;0.10;0.10;;;;;;;25.34;43.12;101278.69;5072043;28;20395;-80
2022/06/30 09:10:22;;;;;;;0.10;0.10;;;;;;;25.41;44.15;101289.97;5071961;28;20032;-79
2022/06/30 09:13:06;;;;;;;0.10;0.10;;;;;;;25.51;43.46;101276.59;5072382;28;20108;-80
2022/06/30 09:15:39;;;;;;;0.10;0.10;;;;;;;25.58;44.21;101277.81;5072685;28;20098;-80
2022/06/30 09:18:06;;;;;;;0.10;0.10;;;;;;;25.46;43.61;101293.22;5062529;28;20036;-80
2022/06/30 09:20:35;;;;;;;0.10;0.10;;;;;;;25.52;44.16;101283.72;5070717;28;20036;-80
2022/06/30 09:23:17;;;;;;;0.00;0.00;;;;;;;25.47;45.00;101294.94;5071340;28;20060;-80
2022/06/30 09:25:48;;;;;;;0.25;0.25;;;;;;;25.51;44.95;101296.44;5072205;28;20039;-80
2022/06/30 09:28:14;;;;;;;0.10;0.10;;;;;;;25.56;44.62;101287.06;5063296;28;20102;-81
2022/06/30 09:30:41;;;;;;;0.00;0.00;;;;;;;25.60;44.87;101288.56;5069606;28;20170;-81
2022/06/30 09:33:09;;;;;;;0.10;0.10;;;;;;;25.63;44.61;101299.19;5071196;28;20051;-80
2022/06/30 09:35:38;;;;;;;0.15;0.15;;;;;;;25.69;45.19;101287.84;5073286;28;20036;-81
2022/06/30 09:38:08;;;;;;;0.10;0.10;;;;;;;25.57;44.35;101294.22;5070776;28;20028;-81
2022/06/30 09:43:11;;;;;;;0.10;0.10;;;;;;;25.43;45.16;101312.41;5039733;27;1188214;-81
2022/06/30 09:45:41;;;;;;;0.00;0.00;;;;;;;25.52;45.07;101306.31;5072386;28;20064;-81
2022/06/30 09:48:11;;;;;;;0.10;0.10;;;;;;;25.60;44.80;101307.56;5079961;28;20025;-81
2022/06/30 09:50:38;;;;;;;0.10;0.10;;;;;;;25.58;44.35;101317.66;5089997;28;20032;-82
2022/06/30 09:53:09;;;;;;;0.00;0.00;;;;;;;25.64;44.46;101306.34;5090406;28;20073;-80
2022/06/30 09:55:42;;;;;;;0.10;0.10;;;;;;;25.83;44.63;101316.63;5090286;28;20035;-81
2022/06/30 09:58:09;;;;;;;0.00;0.00;;;;;;;25.86;44.08;101320.97;5092291;28;20036;-82
2022/06/30 10:00:45;;;;;;;0.10;0.10;;;;;;;26.10;44.50;101319.09;5085772;28;20020;-84
2022/06/30 10:03:12;;;;;;;0.52;0.52;;;;;;;26.11;43.60;101333.53;5074911;28;20111;-83
2022/06/30 10:05:43;;;;;;;0.10;0.10;;;;;;;26.22;43.71;101324.53;5072660;28;20115;-82
2022/06/30 10:08:10;;;;;;;0.10;0.10;;;;;;;26.32;43.41;101326.41;5091675;28;20028;-83
2022/06/30 10:10:39;;;;;;;0.00;0.00;;;;;;;26.28;43.10;101326.75;5087164;28;20315;-83
2022/06/30 10:13:07;;;;;;;1.13;0.50;;;;;;;26.48;43.30;101331.47;5073970;28;20061;-85
2022/06/30 10:15:35;;;;;;;0.20;0.20;;;;;;;26.38;41.83;101338.66;5081493;28;20095;-81
2022/06/30 10:18:05;;;;;;;0.10;0.10;;;;;;;26.26;42.41;101335.03;5091886;28;20039;-79
2022/06/30 10:20:37;;;;;;;0.03;0.03;;;;;;;26.25;43.49;101329.72;5087198;28;20063;-82
2022/06/30 10:23:05;;;;;;;0.25;0.25;;;;;;;26.26;43.75;101326.88;5083554;28;20529;-82
2022/06/30 10:25:34;;;;;;;0.10;0.10;;;;;;;26.46;44.38;101330.72;5082197;28;20542;-82
2022/06/30 10:28:01;;;;;;;0.10;0.10;;;;;;;26.68;45.13;101326.31;5090986;28;20020;-82
2022/06/30 10:30:40;;;;;;;0.05;0.05;;;;;;;27.10;43.16;101322.94;5090357;28;20120;-80
2022/06/30 10:33:24;;;;;;;0.00;0.00;;;;;;;27.20;42.27;101325.75;5078179;28;20079;-83
2022/06/30 10:36:05;;;;;;;0.00;0.00;;;;;;;27.22;42.79;101321.06;5071565;28;20494;-83
2022/06/30 10:41:24;;;;;;;0.00;0.00;;;;;;;27.11;42.94;101330.94;5124225;27;20414;-81
2022/06/30 10:44:14;;;;;;;0.00;0.00;;;;;;;27.41;42.41;101313.09;5122625;28;20040;-81
2022/06/30 10:49:32;;;;;;;0.10;0.10;;;;;;;27.74;40.92;101311.22;5118731;27;1326435;-81
2022/06/30 10:52:19;;;;;;;0.00;0.00;;;;;;;27.86;40.80;101313.88;5132359;27;20050;-79
2022/06/30 10:54:46;;;;;;;0.20;0.20;;;;;;;27.69;41.38;101321.66;5121914;28;20020;-81
2022/06/30 10:57:12;;;;;;;0.03;0.03;;;;;;;27.63;41.70;101327.63;5115907;28;20027;-81
2022/06/30 10:59:41;;;;;;;0.10;0.10;;;;;;;27.39;40.65;101322.34;5116323;28;20024;-81
2022/06/30 11:04:48;;;;;;;0.22;0.22;;;;;;;27.34;41.77;101328.19;5116107;27;20327;-81
2022/06/30 11:07:20;;;;;;;0.15;0.15;;;;;;;27.32;42.04;101338.34;5096133;28;20572;-80
2022/06/30 11:15:10;;;;;;;1.85;0.63;;;;;;;27.10;41.25;101323.81;5125914;27;20387;-79
2022/06/30 11:17:39;;;;;;;0.43;0.43;;;;;;;27.03;42.23;101328.03;5135499;28;20042;-81
2022/06/30 11:22:43;;;;;;;0.20;0.20;;;;;;;26.76;42.54;101321.13;5068319;27;1927263;-81
2022/06/30 11:27:44;;;;;;;0.10;0.10;;;;;;;26.63;42.65;101314.91;5119712;27;1189020;-81
2022/06/30 11:30:12;;;;;;;0.00;0.00;;;;;;;26.73;42.82;101307.75;5132636;27;20475;-82
2022/06/30 11:32:39;;;;;;;0.00;0.00;;;;;;;26.74;41.95;101312.25;5108069;27;20389;-82
2022/06/30 11:35:08;;;;;;;0.10;0.10;;;;;;;26.78;42.66;101313.72;5088401;28;20119;-80
2022/06/30 11:37:34;;;;;;;0.20;0.20;;;;;;;26.78;42.50;101311.00;5091620;28;20016;-80
2022/06/30 11:40:03;;;;;;;0.73;0.73;;;;;;;26.79;42.45;101304.56;5090577;28;20740;-80
2022/06/30 11:42:30;;;;;;;0.10;0.10;;;;;;;26.79;42.81;101307.28;5089424;28;20029;-80
2022/06/30 11:44:56;;;;;;;0.08;0.08;;;;;;;26.76;42.83;101290.38;5090587;28;20028;-81
2022/06/30 11:47:23;;;;;;;0.10;0.10;;;;;;;26.75;43.05;101284.06;5081431;22;20576;-81
2022/06/30 11:52:37;;;;;;;0.00;0.00;;;;;;;26.69;42.88;101281.81;5065601;27;20365;-79
2022/06/30 11:57:41;;;;;;;0.00;0.00;;;;;;;26.86;43.09;101279.63;5103854;27;1185913;-79
2022/06/30 12:00:11;;;;;;;0.10;0.10;;;;;;;26.80;43.52;101273.69;5128596;27;20392;-78
2022/06/30 12:02:39;;;;;;;0.98;0.85;;;;;;;26.78;43.40;101270.22;5106224;27;20047;-79